Terminal Aerodrome Forecast
Issued by NWS Grand Forks, ND

Home | Current Version | Previous Version | Text Only | Print | Product List | Glossary On
Versions: 1 2 3 4 5 6 7 8 9 10 11 12 13 14 15 16 17 18 19 20 21
672
FTUS43 KFGF 251724 AAB
TAFFAR
TAF AMD
KFAR 251724Z 2517/2618 15015KT P6SM SCT015
      TEMPO 2518/2521 BKN015
     FM260300 15008KT P6SM FEW050
     FM260700 15005KT P6SM BKN015=

USA.gov is the U.S. government's official web portal to all federal, state and local government web resources and services.